TimeCST,TemperatureF,Dew PointF,Humidity,Sea Level PressureIn,VisibilityMPH,Wind Direction,Wind SpeedMPH,Gust SpeedMPH,PrecipitationIn,Events,Conditions,WindDirDegrees,DateUTC
12:00 AM,71,65,77,30.08,12,Calm,Calm,,,,Mostly Cloudy,,2013-03-16 06:00:00
3:00 AM,69,66,89,30.01,12,NNW,2.3,,,,Mostly Cloudy,330,2013-03-16 09:00:00
5:00 AM,66.2,62.6,88,30.01,6.2,West,3.5,-,N/A,,Mostly Cloudy,280,2013-03-16 11:00:00
6:00 AM,64.4,62.6,94,30.01,6.2,West,3.5,-,N/A,,Scattered Clouds,260,2013-03-16 12:00:00
7:00 AM,66.2,62.6,88,30.04,6.2,West,3.5,-,N/A,,Scattered Clouds,280,2013-03-16 13:00:00
8:00 AM,69.8,64.4,83,30.04,-9999.0,North,-9999.0,-,N/A,,Mostly Cloudy,0,2013-03-16 14:00:00
9:00 AM,75,67,70,30.06,12,Calm,Calm,,,,Mostly Cloudy,,2013-03-16 15:00:00
9:00 AM,75.2,68.0,78,30.05,6.2,Calm,Calm,-,N/A,,Mostly Cloudy,0,2013-03-16 15:00:00
10:00 AM,78.8,66.2,65,30.06,6.2,ESE,4.6,-,N/A,,Mostly Cloudy,120,2013-03-16 16:00:00
11:00 AM,80.6,68.0,65,30.04,6.2,East,8.1,-,N/A,,Mostly Cloudy,90,2013-03-16 17:00:00
12:00 PM,82,68,55,30.02,12,East,11.5,,,,Mostly Cloudy,90,2013-03-16 18:00:00
12:00 PM,82.4,68.0,62,30.01,6.2,East,11.5,-,N/A,,Scattered Clouds,90,2013-03-16 18:00:00
1:00 PM,80.6,68.0,65,29.99,6.2,East,9.2,-,N/A,,Mostly Cloudy,90,2013-03-16 19:00:00
2:00 PM,77.0,69.8,78,29.97,6.2,East,5.8,-,N/A,Rain,Light Rain Showers,90,2013-03-16 20:00:00
3:00 PM,78,67,60,29.96,12,East,8.1,,,Rain,Light Rain Showers,100,2013-03-16 21:00:00
3:00 PM,78.8,66.2,65,29.95,6.2,East,8.1,-,N/A,,Scattered Clouds,100,2013-03-16 21:00:00
4:00 PM,77.0,66.2,69,29.94,6.2,North,-9999.0,-,N/A,,Scattered Clouds,0,2013-03-16 22:00:00
5:00 PM,78.8,68.0,69,29.95,6.2,East,5.8,-,N/A,,Scattered Clouds,90,2013-03-16 23:00:00
6:00 PM,77,67,64,29.97,12,East,4.6,,,,Partly Cloudy,100,2013-03-17 00:00:00
6:00 PM,77.0,68.0,74,29.96,6.2,East,4.6,-,N/A,,Partly Cloudy,100,2013-03-17 00:00:00
9:00 PM,70,67,88,30.01,16,Calm,Calm,,,,Clear,,2013-03-17 03:00:00